sensor_id;sensor_type;location;lat;lon;timestamp;P1;durP1;ratioP1;P2;durP2;ratioP2
22606;SDS011;11470;20.968;105.834;2023-10-19T00:03:38;104.32;;;65.50;;
22606;SDS011;11470;20.968;105.834;2023-10-19T00:08:47;108.05;;;69.13;;
22606;SDS011;11470;20.968;105.834;2023-10-19T00:13:54;78.72;;;46.15;;
22606;SDS011;11470;20.968;105.834;2023-10-19T00:19:12;74.20;;;43.75;;
22606;SDS011;11470;20.968;105.834;2023-10-19T00:24:23;96.68;;;61.88;;
22606;SDS011;11470;20.968;105.834;2023-10-19T00:29:28;82.00;;;40.53;;
22606;SDS011;11470;20.968;105.834;2023-10-19T00:34:43;82.93;;;50.83;;
22606;SDS011;11470;20.968;105.834;2023-10-19T00:39:55;105.72;;;71.57;;
22606;SDS011;11470;20.968;105.834;2023-10-19T00:45:18;100.88;;;61.28;;
22606;SDS011;11470;20.968;105.834;2023-10-19T00:50:29;105.03;;;71.20;;
22606;SDS011;11470;20.968;105.834;2023-10-19T00:55:35;94.75;;;61.78;;
22606;SDS011;11470;20.968;105.834;2023-10-19T01:00:40;93.57;;;62.10;;
22606;SDS011;11470;20.968;105.834;2023-10-19T01:05:47;94.25;;;63.83;;
22606;SDS011;11470;20.968;105.834;2023-10-19T01:10:52;95.47;;;65.30;;
22606;SDS011;11470;20.968;105.834;2023-10-19T01:15:57;91.53;;;59.28;;
22606;SDS011;11470;20.968;105.834;2023-10-19T01:21:02;61.53;;;37.87;;
22606;SDS011;11470;20.968;105.834;2023-10-19T01:26:10;80.13;;;51.13;;
22606;SDS011;11470;20.968;105.834;2023-10-19T01:31:21;59.35;;;35.58;;
22606;SDS011;11470;20.968;105.834;2023-10-19T01:36:34;83.97;;;55.70;;
22606;SDS011;11470;20.968;105.834;2023-10-19T01:41:48;46.67;;;26.33;;
22606;SDS011;11470;20.968;105.834;2023-10-19T01:51:59;77.70;;;46.03;;
22606;SDS011;11470;20.968;105.834;2023-10-19T01:57:04;78.40;;;44.47;;
22606;SDS011;11470;20.968;105.834;2023-10-19T02:02:11;60.92;;;32.65;;
22606;SDS011;11470;20.968;105.834;2023-10-19T02:07:16;79.27;;;34.50;;
22606;SDS011;11470;20.968;105.834;2023-10-19T02:12:21;60.97;;;30.30;;
22606;SDS011;11470;20.968;105.834;2023-10-19T02:17:27;60.75;;;30.35;;
22606;SDS011;11470;20.968;105.834;2023-10-19T02:22:34;81.65;;;55.08;;
22606;SDS011;11470;20.968;105.834;2023-10-19T02:27:40;79.85;;;53.63;;
22606;SDS011;11470;20.968;105.834;2023-10-19T02:32:46;64.75;;;35.05;;
22606;SDS011;11470;20.968;105.834;2023-10-19T02:37:51;65.72;;;41.30;;
22606;SDS011;11470;20.968;105.834;2023-10-19T02:42:55;80.53;;;53.08;;
22606;SDS011;11470;20.968;105.834;2023-10-19T02:48:06;76.15;;;51.67;;
22606;SDS011;11470;20.968;105.834;2023-10-19T02:53:15;73.88;;;51.75;;
22606;SDS011;11470;20.968;105.834;2023-10-19T02:58:23;68.40;;;47.67;;
22606;SDS011;11470;20.968;105.834;2023-10-19T03:03:28;63.20;;;46.27;;
22606;SDS011;11470;20.968;105.834;2023-10-19T03:08:34;50.70;;;26.88;;
22606;SDS011;11470;20.968;105.834;2023-10-19T03:13:39;46.70;;;27.77;;
22606;SDS011;11470;20.968;105.834;2023-10-19T03:23:49;41.70;;;23.67;;
22606;SDS011;11470;20.968;105.834;2023-10-19T03:28:54;54.67;;;33.70;;
22606;SDS011;11470;20.968;105.834;2023-10-19T03:33:59;50.95;;;31.40;;
22606;SDS011;11470;20.968;105.834;2023-10-19T03:39:09;59.88;;;38.72;;
22606;SDS011;11470;20.968;105.834;2023-10-19T03:44:21;52.05;;;32.80;;
22606;SDS011;11470;20.968;105.834;2023-10-19T03:49:26;41.70;;;24.23;;
22606;SDS011;11470;20.968;105.834;2023-10-19T03:54:37;37.13;;;21.30;;
22606;SDS011;11470;20.968;105.834;2023-10-19T03:59:42;38.00;;;21.88;;
22606;SDS011;11470;20.968;105.834;2023-10-19T04:04:47;38.90;;;27.85;;
22606;SDS011;11470;20.968;105.834;2023-10-19T04:09:54;32.47;;;15.45;;
22606;SDS011;11470;20.968;105.834;2023-10-19T04:15:03;35.13;;;16.80;;
22606;SDS011;11470;20.968;105.834;2023-10-19T04:20:16;45.60;;;31.90;;
22606;SDS011;11470;20.968;105.834;2023-10-19T04:25:22;38.70;;;28.58;;
22606;SDS011;11470;20.968;105.834;2023-10-19T04:30:30;34.83;;;15.50;;
22606;SDS011;11470;20.968;105.834;2023-10-19T04:35:36;30.05;;;17.73;;
22606;SDS011;11470;20.968;105.834;2023-10-19T04:40:47;20.38;;;14.60;;
22606;SDS011;11470;20.968;105.834;2023-10-19T04:45:55;23.33;;;16.50;;
22606;SDS011;11470;20.968;105.834;2023-10-19T04:51:02;34.10;;;23.35;;
22606;SDS011;11470;20.968;105.834;2023-10-19T04:56:10;28.88;;;19.92;;
22606;SDS011;11470;20.968;105.834;2023-10-19T05:01:15;33.05;;;19.25;;
22606;SDS011;11470;20.968;105.834;2023-10-19T05:06:20;29.40;;;19.88;;
22606;SDS011;11470;20.968;105.834;2023-10-19T05:11:26;22.70;;;12.32;;
22606;SDS011;11470;20.968;105.834;2023-10-19T05:16:32;18.92;;;13.38;;
22606;SDS011;11470;20.968;105.834;2023-10-19T05:21:36;22.73;;;11.20;;
22606;SDS011;11470;20.968;105.834;2023-10-19T05:26:41;24.13;;;18.63;;
22606;SDS011;11470;20.968;105.834;2023-10-19T05:31:46;20.73;;;13.95;;
22606;SDS011;11470;20.968;105.834;2023-10-19T05:36:57;17.05;;;12.32;;
22606;SDS011;11470;20.968;105.834;2023-10-19T05:42:05;18.52;;;14.05;;
22606;SDS011;11470;20.968;105.834;2023-10-19T05:47:10;24.38;;;16.27;;
22606;SDS011;11470;20.968;105.834;2023-10-19T05:52:15;22.47;;;17.50;;
22606;SDS011;11470;20.968;105.834;2023-10-19T05:57:20;19.20;;;13.77;;
22606;SDS011;11470;20.968;105.834;2023-10-19T06:07:35;20.75;;;13.35;;
22606;SDS011;11470;20.968;105.834;2023-10-19T06:12:40;22.80;;;16.85;;
22606;SDS011;11470;20.968;105.834;2023-10-19T06:17:45;20.42;;;14.90;;
22606;SDS011;11470;20.968;105.834;2023-10-19T06:22:52;21.73;;;15.20;;
22606;SDS011;11470;20.968;105.834;2023-10-19T06:27:59;15.45;;;10.10;;
22606;SDS011;11470;20.968;105.834;2023-10-19T06:33:05;17.38;;;13.70;;
22606;SDS011;11470;20.968;105.834;2023-10-19T06:38:10;16.30;;;12.05;;
22606;SDS011;11470;20.968;105.834;2023-10-19T06:43:15;16.08;;;13.43;;
22606;SDS011;11470;20.968;105.834;2023-10-19T06:48:27;14.40;;;10.07;;
22606;SDS011;11470;20.968;105.834;2023-10-19T06:58:36;18.50;;;15.38;;
22606;SDS011;11470;20.968;105.834;2023-10-19T07:03:41;18.00;;;12.70;;
22606;SDS011;11470;20.968;105.834;2023-10-19T07:08:46;18.93;;;14.43;;
22606;SDS011;11470;20.968;105.834;2023-10-19T07:13:51;21.23;;;15.75;;
22606;SDS011;11470;20.968;105.834;2023-10-19T07:18:56;14.40;;;9.93;;
22606;SDS011;11470;20.968;105.834;2023-10-19T07:24:02;17.35;;;12.45;;
22606;SDS011;11470;20.968;105.834;2023-10-19T07:29:13;21.20;;;14.77;;
22606;SDS011;11470;20.968;105.834;2023-10-19T07:34:18;22.30;;;14.93;;
22606;SDS011;11470;20.968;105.834;2023-10-19T07:39:28;16.38;;;14.57;;
22606;SDS011;11470;20.968;105.834;2023-10-19T07:49:38;15.50;;;10.15;;
22606;SDS011;11470;20.968;105.834;2023-10-19T07:54:43;20.10;;;15.40;;
22606;SDS011;11470;20.968;105.834;2023-10-19T07:59:48;20.00;;;16.60;;
22606;SDS011;11470;20.968;105.834;2023-10-19T08:04:54;19.67;;;15.93;;
22606;SDS011;11470;20.968;105.834;2023-10-19T08:10:00;17.25;;;13.38;;
22606;SDS011;11470;20.968;105.834;2023-10-19T08:15:06;20.48;;;17.48;;
22606;SDS011;11470;20.968;105.834;2023-10-19T08:20:11;18.30;;;12.88;;
22606;SDS011;11470;20.968;105.834;2023-10-19T08:26:10;19.95;;;14.25;;
22606;SDS011;11470;20.968;105.834;2023-10-19T08:31:17;14.13;;;9.77;;
22606;SDS011;11470;20.968;105.834;2023-10-19T08:36:31;20.02;;;14.13;;
22606;SDS011;11470;20.968;105.834;2023-10-19T08:41:35;17.03;;;11.97;;
22606;SDS011;11470;20.968;105.834;2023-10-19T08:46:42;19.70;;;15.40;;
22606;SDS011;11470;20.968;105.834;2023-10-19T08:51:48;17.58;;;11.63;;
22606;SDS011;11470;20.968;105.834;2023-10-19T08:56:55;19.10;;;14.88;;
22606;SDS011;11470;20.968;105.834;2023-10-19T09:02:01;17.45;;;13.65;;
22606;SDS011;11470;20.968;105.834;2023-10-19T09:07:06;17.77;;;13.90;;
22606;SDS011;11470;20.968;105.834;2023-10-19T09:12:13;17.17;;;14.02;;
22606;SDS011;11470;20.968;105.834;2023-10-19T09:17:30;16.17;;;12.15;;
22606;SDS011;11470;20.968;105.834;2023-10-19T09:22:35;18.02;;;13.63;;
22606;SDS011;11470;20.968;105.834;2023-10-19T09:27:40;16.52;;;12.63;;
22606;SDS011;11470;20.968;105.834;2023-10-19T09:32:47;18.48;;;13.15;;
22606;SDS011;11470;20.968;105.834;2023-10-19T09:37:55;15.73;;;12.10;;
22606;SDS011;11470;20.968;105.834;2023-10-19T09:43:13;16.67;;;12.02;;
22606;SDS011;11470;20.968;105.834;2023-10-19T09:48:21;17.55;;;11.85;;
22606;SDS011;11470;20.968;105.834;2023-10-19T09:58:40;15.65;;;11.10;;
22606;SDS011;11470;20.968;105.834;2023-10-19T10:09:03;19.92;;;12.05;;
22606;SDS011;11470;20.968;105.834;2023-10-19T10:14:24;16.40;;;11.90;;
22606;SDS011;11470;20.968;105.834;2023-10-19T10:19:34;19.70;;;12.15;;
22606;SDS011;11470;20.968;105.834;2023-10-19T10:24:42;19.13;;;12.90;;
22606;SDS011;11470;20.968;105.834;2023-10-19T10:29:53;15.32;;;11.82;;
22606;SDS011;11470;20.968;105.834;2023-10-19T10:35:02;15.02;;;12.00;;
22606;SDS011;11470;20.968;105.834;2023-10-19T10:40:10;16.10;;;11.88;;
22606;SDS011;11470;20.968;105.834;2023-10-19T10:45:19;18.10;;;11.20;;
22606;SDS011;11470;20.968;105.834;2023-10-19T10:50:25;18.08;;;12.50;;
22606;SDS011;11470;20.968;105.834;2023-10-19T10:55:34;33.65;;;19.73;;
22606;SDS011;11470;20.968;105.834;2023-10-19T11:00:42;24.10;;;17.17;;
22606;SDS011;11470;20.968;105.834;2023-10-19T11:05:48;33.90;;;18.73;;
22606;SDS011;11470;20.968;105.834;2023-10-19T11:11:01;21.05;;;14.13;;
22606;SDS011;11470;20.968;105.834;2023-10-19T11:16:21;18.02;;;12.00;;
22606;SDS011;11470;20.968;105.834;2023-10-19T11:21:30;18.00;;;13.35;;
22606;SDS011;11470;20.968;105.834;2023-10-19T11:31:56;36.67;;;21.80;;
22606;SDS011;11470;20.968;105.834;2023-10-19T11:37:03;56.47;;;32.58;;
22606;SDS011;11470;20.968;105.834;2023-10-19T11:42:09;44.60;;;24.77;;
22606;SDS011;11470;20.968;105.834;2023-10-19T11:47:19;40.40;;;23.77;;
22606;SDS011;11470;20.968;105.834;2023-10-19T11:52:27;35.90;;;22.02;;
22606;SDS011;11470;20.968;105.834;2023-10-19T11:57:34;51.83;;;28.92;;
22606;SDS011;11470;20.968;105.834;2023-10-19T12:02:42;43.17;;;22.92;;
22606;SDS011;11470;20.968;105.834;2023-10-19T12:07:48;33.67;;;20.42;;
22606;SDS011;11470;20.968;105.834;2023-10-19T12:12:53;43.53;;;24.05;;
22606;SDS011;11470;20.968;105.834;2023-10-19T12:18:11;33.80;;;20.45;;
22606;SDS011;11470;20.968;105.834;2023-10-19T12:23:17;35.25;;;21.75;;
22606;SDS011;11470;20.968;105.834;2023-10-19T12:28:45;38.08;;;21.77;;
22606;SDS011;11470;20.968;105.834;2023-10-19T12:33:52;31.60;;;19.88;;
22606;SDS011;11470;20.968;105.834;2023-10-19T12:38:57;41.40;;;25.65;;
22606;SDS011;11470;20.968;105.834;2023-10-19T12:44:10;37.45;;;24.50;;
22606;SDS011;11470;20.968;105.834;2023-10-19T12:49:19;39.17;;;24.13;;
22606;SDS011;11470;20.968;105.834;2023-10-19T12:54:46;39.08;;;24.10;;
22606;SDS011;11470;20.968;105.834;2023-10-19T13:00:19;41.92;;;28.17;;
22606;SDS011;11470;20.968;105.834;2023-10-19T13:05:47;53.47;;;33.05;;
22606;SDS011;11470;20.968;105.834;2023-10-19T13:10:58;47.60;;;29.67;;
22606;SDS011;11470;20.968;105.834;2023-10-19T13:16:22;50.40;;;30.73;;
22606;SDS011;11470;20.968;105.834;2023-10-19T13:21:28;48.35;;;29.88;;
22606;SDS011;11470;20.968;105.834;2023-10-19T13:26:37;44.88;;;25.98;;
22606;SDS011;11470;20.968;105.834;2023-10-19T13:31:43;48.33;;;29.20;;
22606;SDS011;11470;20.968;105.834;2023-10-19T13:36:52;54.05;;;30.75;;
22606;SDS011;11470;20.968;105.834;2023-10-19T13:42:07;59.58;;;33.53;;
22606;SDS011;11470;20.968;105.834;2023-10-19T13:47:12;46.85;;;30.38;;
22606;SDS011;11470;20.968;105.834;2023-10-19T13:52:19;54.50;;;31.25;;
22606;SDS011;11470;20.968;105.834;2023-10-19T13:57:24;48.72;;;30.23;;
22606;SDS011;11470;20.968;105.834;2023-10-19T14:07:36;42.30;;;27.33;;
22606;SDS011;11470;20.968;105.834;2023-10-19T14:12:46;44.75;;;27.02;;
22606;SDS011;11470;20.968;105.834;2023-10-19T14:17:59;40.88;;;26.02;;
22606;SDS011;11470;20.968;105.834;2023-10-19T14:29:27;39.58;;;25.20;;
22606;SDS011;11470;20.968;105.834;2023-10-19T14:41:02;33.60;;;20.48;;
22606;SDS011;11470;20.968;105.834;2023-10-19T14:46:08;33.50;;;20.55;;
22606;SDS011;11470;20.968;105.834;2023-10-19T14:51:16;35.40;;;19.83;;
22606;SDS011;11470;20.968;105.834;2023-10-19T14:56:21;34.90;;;18.65;;
22606;SDS011;11470;20.968;105.834;2023-10-19T15:01:36;32.92;;;17.40;;
22606;SDS011;11470;20.968;105.834;2023-10-19T15:11:47;25.35;;;14.73;;
22606;SDS011;11470;20.968;105.834;2023-10-19T15:16:52;14.35;;;9.85;;
22606;SDS011;11470;20.968;105.834;2023-10-19T15:22:02;18.13;;;11.48;;
22606;SDS011;11470;20.968;105.834;2023-10-19T15:27:25;17.30;;;10.37;;
22606;SDS011;11470;20.968;105.834;2023-10-19T15:32:32;19.92;;;11.30;;
22606;SDS011;11470;20.968;105.834;2023-10-19T15:37:37;21.90;;;10.93;;
22606;SDS011;11470;20.968;105.834;2023-10-19T15:42:43;15.07;;;9.43;;
22606;SDS011;11470;20.968;105.834;2023-10-19T15:47:52;17.48;;;11.15;;
22606;SDS011;11470;20.968;105.834;2023-10-19T15:52:58;14.77;;;9.20;;
22606;SDS011;11470;20.968;105.834;2023-10-19T15:58:03;19.88;;;9.48;;
22606;SDS011;11470;20.968;105.834;2023-10-19T16:03:09;13.98;;;8.95;;
22606;SDS011;11470;20.968;105.834;2023-10-19T16:08:21;15.23;;;9.02;;
22606;SDS011;11470;20.968;105.834;2023-10-19T16:13:47;13.40;;;8.05;;
22606;SDS011;11470;20.968;105.834;2023-10-19T16:18:53;13.13;;;7.70;;
22606;SDS011;11470;20.968;105.834;2023-10-19T16:24:10;14.95;;;6.18;;
22606;SDS011;11470;20.968;105.834;2023-10-19T16:29:15;13.65;;;6.90;;
22606;SDS011;11470;20.968;105.834;2023-10-19T16:34:21;9.00;;;4.18;;
22606;SDS011;11470;20.968;105.834;2023-10-19T16:39:29;11.10;;;5.60;;
22606;SDS011;11470;20.968;105.834;2023-10-19T16:49:39;7.90;;;5.22;;
22606;SDS011;11470;20.968;105.834;2023-10-19T16:55:05;8.83;;;5.07;;
22606;SDS011;11470;20.968;105.834;2023-10-19T17:00:10;11.18;;;5.60;;
22606;SDS011;11470;20.968;105.834;2023-10-19T17:05:30;7.93;;;4.80;;
22606;SDS011;11470;20.968;105.834;2023-10-19T17:10:38;8.10;;;4.22;;
22606;SDS011;11470;20.968;105.834;2023-10-19T17:16:09;6.80;;;4.05;;
22606;SDS011;11470;20.968;105.834;2023-10-19T17:27:47;6.55;;;3.78;;
22606;SDS011;11470;20.968;105.834;2023-10-19T17:32:55;7.85;;;3.45;;
22606;SDS011;11470;20.968;105.834;2023-10-19T17:38:13;6.65;;;3.47;;
22606;SDS011;11470;20.968;105.834;2023-10-19T17:43:17;5.93;;;3.73;;
22606;SDS011;11470;20.968;105.834;2023-10-19T17:48:23;5.40;;;3.05;;
22606;SDS011;11470;20.968;105.834;2023-10-19T17:53:29;4.57;;;2.40;;
22606;SDS011;11470;20.968;105.834;2023-10-19T17:58:35;4.90;;;2.80;;
22606;SDS011;11470;20.968;105.834;2023-10-19T18:03:40;6.28;;;3.60;;
22606;SDS011;11470;20.968;105.834;2023-10-19T18:08:53;7.30;;;4.32;;
22606;SDS011;11470;20.968;105.834;2023-10-19T18:13:59;7.53;;;3.95;;
22606;SDS011;11470;20.968;105.834;2023-10-19T18:19:04;10.73;;;4.53;;
22606;SDS011;11470;20.968;105.834;2023-10-19T18:24:11;9.73;;;4.55;;
22606;SDS011;11470;20.968;105.834;2023-10-19T18:29:18;11.38;;;5.88;;
22606;SDS011;11470;20.968;105.834;2023-10-19T18:34:23;10.47;;;5.83;;
22606;SDS011;11470;20.968;105.834;2023-10-19T18:39:29;10.15;;;5.57;;
22606;SDS011;11470;20.968;105.834;2023-10-19T18:44:33;11.30;;;6.30;;
22606;SDS011;11470;20.968;105.834;2023-10-19T18:49:39;12.82;;;5.95;;
22606;SDS011;11470;20.968;105.834;2023-10-19T18:54:45;13.00;;;7.05;;
22606;SDS011;11470;20.968;105.834;2023-10-19T18:59:50;11.60;;;6.40;;
22606;SDS011;11470;20.968;105.834;2023-10-19T19:04:55;10.97;;;6.40;;
22606;SDS011;11470;20.968;105.834;2023-10-19T19:10:00;9.63;;;5.03;;
22606;SDS011;11470;20.968;105.834;2023-10-19T19:15:05;11.40;;;5.23;;
22606;SDS011;11470;20.968;105.834;2023-10-19T19:20:10;10.93;;;5.50;;
22606;SDS011;11470;20.968;105.834;2023-10-19T19:25:15;8.40;;;4.68;;
22606;SDS011;11470;20.968;105.834;2023-10-19T19:30:20;10.73;;;5.60;;
22606;SDS011;11470;20.968;105.834;2023-10-19T19:35:25;13.00;;;6.73;;
22606;SDS011;11470;20.968;105.834;2023-10-19T19:40:30;14.00;;;6.70;;
22606;SDS011;11470;20.968;105.834;2023-10-19T19:45:35;11.07;;;6.40;;
22606;SDS011;11470;20.968;105.834;2023-10-19T19:50:46;9.68;;;6.43;;
22606;SDS011;11470;20.968;105.834;2023-10-19T19:55:51;10.77;;;6.67;;
22606;SDS011;11470;20.968;105.834;2023-10-19T20:00:57;11.48;;;6.20;;
22606;SDS011;11470;20.968;105.834;2023-10-19T20:06:02;12.13;;;6.32;;
22606;SDS011;11470;20.968;105.834;2023-10-19T20:11:07;10.93;;;6.03;;
22606;SDS011;11470;20.968;105.834;2023-10-19T20:16:15;13.80;;;6.80;;
22606;SDS011;11470;20.968;105.834;2023-10-19T20:21:20;11.27;;;6.50;;
22606;SDS011;11470;20.968;105.834;2023-10-19T20:26:25;14.27;;;7.17;;
22606;SDS011;11470;20.968;105.834;2023-10-19T20:31:31;11.93;;;6.80;;
22606;SDS011;11470;20.968;105.834;2023-10-19T20:36:37;13.40;;;7.07;;
22606;SDS011;11470;20.968;105.834;2023-10-19T20:41:42;12.40;;;7.17;;
22606;SDS011;11470;20.968;105.834;2023-10-19T20:46:47;13.43;;;7.85;;
22606;SDS011;11470;20.968;105.834;2023-10-19T20:51:52;11.88;;;7.40;;
22606;SDS011;11470;20.968;105.834;2023-10-19T20:56:57;12.50;;;6.88;;
22606;SDS011;11470;20.968;105.834;2023-10-19T21:02:02;16.20;;;8.37;;
22606;SDS011;11470;20.968;105.834;2023-10-19T21:12:12;15.15;;;8.00;;
22606;SDS011;11470;20.968;105.834;2023-10-19T21:17:17;18.53;;;9.20;;
22606;SDS011;11470;20.968;105.834;2023-10-19T21:22:22;17.88;;;9.80;;
22606;SDS011;11470;20.968;105.834;2023-10-19T21:27:27;18.10;;;8.95;;
22606;SDS011;11470;20.968;105.834;2023-10-19T21:32:32;13.83;;;7.53;;
22606;SDS011;11470;20.968;105.834;2023-10-19T21:37:38;16.10;;;8.82;;
22606;SDS011;11470;20.968;105.834;2023-10-19T21:47:49;15.05;;;7.95;;
22606;SDS011;11470;20.968;105.834;2023-10-19T21:52:54;13.33;;;7.67;;
22606;SDS011;11470;20.968;105.834;2023-10-19T22:03:04;17.27;;;9.10;;
22606;SDS011;11470;20.968;105.834;2023-10-19T22:08:14;15.10;;;9.07;;
22606;SDS011;11470;20.968;105.834;2023-10-19T22:13:20;15.25;;;8.02;;
22606;SDS011;11470;20.968;105.834;2023-10-19T22:18:25;14.77;;;8.57;;
22606;SDS011;11470;20.968;105.834;2023-10-19T22:23:31;19.52;;;9.73;;
22606;SDS011;11470;20.968;105.834;2023-10-19T22:28:36;17.93;;;9.57;;
22606;SDS011;11470;20.968;105.834;2023-10-19T22:33:41;14.98;;;9.43;;
22606;SDS011;11470;20.968;105.834;2023-10-19T22:43:54;19.83;;;9.40;;
22606;SDS011;11470;20.968;105.834;2023-10-19T22:48:59;15.65;;;9.13;;
22606;SDS011;11470;20.968;105.834;2023-10-19T22:54:05;15.63;;;9.32;;
22606;SDS011;11470;20.968;105.834;2023-10-19T22:59:10;15.93;;;8.55;;
22606;SDS011;11470;20.968;105.834;2023-10-19T23:04:16;17.80;;;9.30;;
22606;SDS011;11470;20.968;105.834;2023-10-19T23:09:22;16.98;;;9.32;;
22606;SDS011;11470;20.968;105.834;2023-10-19T23:14:30;14.75;;;8.52;;
22606;SDS011;11470;20.968;105.834;2023-10-19T23:19:37;18.42;;;10.65;;
22606;SDS011;11470;20.968;105.834;2023-10-19T23:24:42;15.88;;;10.45;;
22606;SDS011;11470;20.968;105.834;2023-10-19T23:29:50;20.27;;;11.05;;
22606;SDS011;11470;20.968;105.834;2023-10-19T23:34:56;26.83;;;10.13;;
22606;SDS011;11470;20.968;105.834;2023-10-19T23:40:05;20.63;;;11.70;;
22606;SDS011;11470;20.968;105.834;2023-10-19T23:45:15;21.90;;;11.40;;
22606;SDS011;11470;20.968;105.834;2023-10-19T23:50:20;14.73;;;9.60;;
